Time;durP1;ratioP1;P1;durP2;ratioP2;P2;SDS_P1;SDS_P2;PMS_P1;PMS_P2;Temp;Humidity;BMP_temperature;BMP_pressure;BME280_temperature;BME280_humidity;BME280_pressure;Samples;Min_cycle;Max_cycle;Signal;HPM_P1;HPM_P2
2022/03/08 00:02:01;;;;;;;21.02;7.03;;;;;;;3.49;36.79;99062.87;4501957;31;20107;-82
2022/03/08 00:04:27;;;;;;;16.15;6.80;;;;;;;3.41;37.21;99070.00;4502045;31;20092;-81
2022/03/08 00:06:53;;;;;;;18.40;7.68;;;;;;;3.11;38.07;99077.53;4500653;31;20111;-81
2022/03/08 00:09:18;;;;;;;15.60;6.95;;;;;;;3.04;38.23;99063.78;4502133;31;20147;-85
2022/03/08 00:11:44;;;;;;;18.58;7.32;;;;;;;3.35;37.85;99069.22;4502229;31;20152;-84
2022/03/08 00:14:09;;;;;;;18.12;7.05;;;;;;;3.15;38.44;99067.03;4502160;31;20106;-84
2022/03/08 00:16:35;;;;;;;16.67;7.32;;;;;;;3.20;38.56;99066.09;4491467;31;20125;-86
2022/03/08 00:19:00;;;;;;;18.73;7.78;;;;;;;3.00;39.12;99074.28;4487139;31;20056;-85
2022/03/08 00:21:26;;;;;;;20.10;7.37;;;;;;;3.10;39.08;99070.63;4500318;31;20080;-85
2022/03/08 00:23:51;;;;;;;19.87;7.87;;;;;;;2.78;39.84;99073.81;4487678;31;20144;-85
2022/03/08 00:26:16;;;;;;;19.80;8.70;;;;;;;2.89;39.77;99058.88;4487835;31;20126;-83
2022/03/08 00:28:42;;;;;;;19.65;8.48;;;;;;;2.82;40.00;99059.88;4487811;31;20145;-85
2022/03/08 00:31:08;;;;;;;17.85;7.60;;;;;;;3.03;39.66;99058.59;4492333;31;20123;-85
2022/03/08 00:33:33;;;;;;;18.83;7.70;;;;;;;2.90;40.01;99058.00;4493521;31;20141;-84
2022/03/08 00:35:59;;;;;;;17.73;7.75;;;;;;;3.02;39.85;99062.97;4488645;31;20111;-84
2022/03/08 00:38:25;;;;;;;20.10;8.10;;;;;;;2.98;40.10;99058.69;4501318;31;20100;-85
2022/03/08 00:40:51;;;;;;;19.08;8.25;;;;;;;3.08;39.87;99056.78;4472287;32;20132;-85
2022/03/08 00:43:16;;;;;;;19.27;7.32;;;;;;;3.14;39.73;99049.69;4485786;31;20123;-84
2022/03/08 00:45:42;;;;;;;17.42;7.55;;;;;;;3.35;39.35;99044.94;4485996;31;20412;-85
2022/03/08 00:48:07;;;;;;;20.20;8.00;;;;;;;3.11;39.93;99054.97;4487834;31;20125;-84
2022/03/08 00:50:33;;;;;;;17.60;6.75;;;;;;;3.04;40.13;99045.56;4500593;31;20123;-85
2022/03/08 00:52:59;;;;;;;17.75;7.35;;;;;;;3.39;39.55;99043.13;4482558;31;20122;-84
2022/03/08 00:55:27;;;;;;;17.42;7.60;;;;;;;3.58;39.31;99043.59;4490286;31;20089;-85
2022/03/08 00:57:53;;;;;;;20.77;7.82;;;;;;;3.57;39.38;99037.50;4473694;31;20158;-86
2022/03/08 01:00:22;;;;;;;16.98;7.12;;;;;;;3.54;39.61;99043.66;4487933;31;20093;-86
2022/03/08 01:02:47;;;;;;;18.12;7.68;;;;;;;3.43;40.02;99044.78;4488241;31;20100;-86
2022/03/08 01:05:13;;;;;;;17.42;6.97;;;;;;;3.15;40.53;99046.22;4488143;31;20096;-86
2022/03/08 01:07:39;;;;;;;17.40;7.75;;;;;;;3.23;40.62;99047.81;4489256;31;20084;-87
2022/03/08 01:10:07;;;;;;;19.25;8.00;;;;;;;3.35;40.35;99047.53;4477018;31;20126;-86
2022/03/08 01:12:32;;;;;;;;;;;;;;;3.42;40.19;99041.31;4503139;31;20103;-86
2022/03/08 01:14:57;;;;;;;17.83;6.60;;;;;;;3.35;40.56;99045.78;4503088;31;19994;-86
2022/03/08 01:17:23;;;;;;;15.57;6.97;;;;;;;3.22;40.63;99039.13;4502713;31;20103;-84
2022/03/08 01:19:49;;;;;;;17.55;7.30;;;;;;;3.44;40.16;99033.44;4488189;31;20120;-85
2022/03/08 01:22:15;;;;;;;17.25;7.37;;;;;;;3.37;40.16;99031.88;4488613;31;20337;-84
2022/03/08 01:24:40;;;;;;;19.52;7.18;;;;;;;2.91;41.08;99042.34;4487949;31;20143;-84
2022/03/08 01:27:06;;;;;;;17.42;6.55;;;;;;;3.04;40.88;99044.72;4503050;31;20412;-84
2022/03/08 01:29:31;;;;;;;19.67;7.12;;;;;;;3.22;40.55;99040.87;4488192;31;20122;-85
2022/03/08 01:31:57;;;;;;;17.48;7.80;;;;;;;3.17;40.73;99043.59;4502831;31;20103;-85
2022/03/08 01:34:22;;;;;;;17.48;7.15;;;;;;;3.31;40.49;99032.87;4502877;31;20137;-84
2022/03/08 01:36:48;;;;;;;14.52;6.47;;;;;;;3.30;40.49;99037.25;4502540;31;20100;-84
2022/03/08 01:39:13;;;;;;;15.85;6.78;;;;;;;3.19;40.69;99033.13;4502603;31;20116;-85
2022/03/08 01:41:39;;;;;;;17.20;6.85;;;;;;;3.18;40.63;99031.41;4465812;32;20092;-86
2022/03/08 01:44:04;;;;;;;15.10;6.57;;;;;;;3.26;40.41;99027.75;4487905;31;20115;-86
2022/03/08 01:46:30;;;;;;;16.15;6.87;;;;;;;3.34;40.34;99040.59;4477994;31;20088;-85
2022/03/08 01:48:55;;;;;;;16.85;7.03;;;;;;;3.33;40.21;99041.50;4490116;31;20124;-84
2022/03/08 01:51:21;;;;;;;17.33;7.30;;;;;;;3.37;40.00;99024.94;4487983;32;20092;-85
2022/03/08 01:53:47;;;;;;;16.65;6.93;;;;;;;3.05;40.85;99039.50;4488021;32;20503;-84
2022/03/08 01:56:12;;;;;;;17.27;7.30;;;;;;;3.27;40.30;99033.84;4488481;31;20152;-83
2022/03/08 01:58:38;;;;;;;17.12;7.20;;;;;;;3.21;40.73;99031.38;4494174;31;20123;-83
2022/03/08 02:01:05;;;;;;;16.23;7.55;;;;;;;2.95;41.17;99030.12;4483262;31;20520;-85
2022/03/08 02:03:31;;;;;;;17.90;7.25;;;;;;;2.98;41.24;99024.03;4496329;31;20485;-83
2022/03/08 02:05:56;;;;;;;18.08;7.55;;;;;;;3.01;41.25;99029.16;4481645;32;20116;-82
2022/03/08 02:08:22;;;;;;;18.10;7.43;;;;;;;3.09;41.07;99030.72;4495123;31;20147;-84
2022/03/08 02:10:47;;;;;;;17.23;7.90;;;;;;;3.28;40.72;99028.59;4481861;32;20097;-83
2022/03/08 02:13:13;;;;;;;17.55;7.15;;;;;;;3.20;41.08;99027.03;4487736;31;20114;-82
2022/03/08 02:15:38;;;;;;;18.08;7.80;;;;;;;3.18;41.08;99028.81;4495892;31;20376;-85
2022/03/08 02:18:04;;;;;;;17.73;7.20;;;;;;;3.06;41.20;99037.72;4487571;31;20131;-84
2022/03/08 02:20:30;;;;;;;17.83;7.10;;;;;;;3.13;41.17;99028.91;4488091;31;20088;-84
2022/03/08 02:22:55;;;;;;;16.05;7.12;;;;;;;3.33;41.27;99029.34;4487458;31;20114;-84
2022/03/08 02:25:22;;;;;;;17.92;7.00;;;;;;;3.32;41.08;99031.97;4487512;32;20107;-84
2022/03/08 02:27:50;;;;;;;17.00;7.12;;;;;;;3.35;41.04;99029.31;4487464;31;20096;-83
2022/03/08 02:30:15;;;;;;;;;;;;;;;2.87;42.10;99029.44;4487826;31;20100;-84
2022/03/08 02:32:41;;;;;;;15.65;6.72;;;;;;;3.20;41.46;99032.25;4486304;32;20004;-83
2022/03/08 02:35:16;;;;;;;17.12;7.25;;;;;;;3.15;41.67;99029.75;4486230;32;20111;-85
2022/03/08 02:37:50;;;;;;;17.50;7.07;;;;;;;3.22;41.17;99033.06;4487560;31;20115;-85
2022/03/08 02:40:18;;;;;;;17.50;7.30;;;;;;;3.27;41.18;99028.62;4487802;31;20155;-85
2022/03/08 02:42:44;;;;;;;15.82;7.05;;;;;;;3.13;41.36;99023.72;4487487;31;20088;-86
2022/03/08 02:45:11;;;;;;;15.48;7.05;;;;;;;3.21;41.36;99026.16;4486426;32;20330;-86
2022/03/08 02:47:36;;;;;;;16.45;6.93;;;;;;;3.25;41.47;99022.59;4487400;31;20218;-84
2022/03/08 02:50:09;;;;;;;17.35;6.75;;;;;;;3.32;41.09;99021.56;4487417;31;20439;-86
2022/03/08 02:52:35;;;;;;;16.52;7.03;;;;;;;3.39;41.08;99023.16;4487428;31;20102;-86
2022/03/08 02:55:01;;;;;;;19.87;7.43;;;;;;;3.36;41.31;99023.19;4487286;31;20140;-85
2022/03/08 02:57:27;;;;;;;18.58;7.45;;;;;;;3.28;41.48;99020.78;4486126;32;20103;-86
2022/03/08 02:59:53;;;;;;;18.50;7.45;;;;;;;3.36;41.28;99018.00;4487328;31;20133;-86
2022/03/08 03:02:18;;;;;;;15.70;6.70;;;;;;;3.22;41.54;99026.09;4486063;32;20084;-86
2022/03/08 03:04:45;;;;;;;19.55;7.53;;;;;;;3.22;41.72;99028.72;4487268;31;20405;-85
2022/03/08 03:07:14;;;;;;;16.67;7.30;;;;;;;3.15;41.91;99022.78;4487221;31;20096;-86
2022/03/08 03:09:39;;;;;;;17.42;7.35;;;;;;;3.18;42.04;99018.41;4494347;31;20447;-86
2022/03/08 03:12:05;;;;;;;16.60;6.37;;;;;;;3.17;42.06;99024.47;4492147;31;20088;-85
2022/03/08 03:14:30;;;;;;;18.35;6.87;;;;;;;3.23;42.05;99029.59;4474393;32;20101;-86
2022/03/08 03:16:56;;;;;;;16.70;6.78;;;;;;;3.31;41.94;99028.50;4472176;32;20108;-83
2022/03/08 03:19:21;;;;;;;15.45;6.50;;;;;;;3.20;42.04;99025.28;4472791;32;20100;-81
2022/03/08 03:21:47;;;;;;;15.27;6.53;;;;;;;3.26;42.01;99025.13;4486953;32;21230;-82
2022/03/08 03:24:12;;;;;;;17.58;7.10;;;;;;;3.19;42.24;99030.50;4487046;32;20128;-81
2022/03/08 03:26:38;;;;;;;18.90;7.20;;;;;;;3.26;41.96;99019.94;4472811;32;20345;-82
2022/03/08 03:29:03;;;;;;;17.77;6.40;;;;;;;3.26;41.96;99026.91;4487143;32;20436;-83
2022/03/08 03:31:29;;;;;;;17.12;6.68;;;;;;;3.34;41.72;99033.66;4473059;32;20088;-82
2022/03/08 03:33:54;;;;;;;14.87;6.68;;;;;;;3.28;41.85;99038.13;4487208;32;20080;-79
2022/03/08 03:36:20;;;;;;;18.23;7.65;;;;;;;3.35;41.65;99037.12;4487153;32;20109;-81
2022/03/08 03:38:45;;;;;;;19.17;7.40;;;;;;;3.29;41.91;99039.88;4490927;31;20321;-81
2022/03/08 03:41:10;;;;;;;15.02;6.62;;;;;;;3.32;41.92;99038.06;4502514;31;20103;-82
2022/03/08 03:43:36;;;;;;;15.70;6.72;;;;;;;3.37;41.78;99031.88;4502785;31;20080;-82
2022/03/08 03:46:02;;;;;;;16.80;6.65;;;;;;;3.32;42.11;99029.38;4475240;31;20118;-82
2022/03/08 03:48:27;;;;;;;16.73;6.60;;;;;;;3.43;42.08;99031.75;4502653;31;20424;-81
2022/03/08 03:50:52;;;;;;;15.15;6.12;;;;;;;3.39;42.04;99023.16;4502782;31;20422;-82
2022/03/08 03:53:18;;;;;;;17.40;6.80;;;;;;;3.31;42.22;99025.06;4502550;31;20409;-81
2022/03/08 03:55:43;;;;;;;16.30;6.95;;;;;;;3.35;42.10;99026.72;4502418;31;20110;-81
2022/03/08 03:58:09;;;;;;;16.62;7.18;;;;;;;3.21;42.41;99028.75;4488190;31;20432;-80
2022/03/08 04:00:34;;;;;;;15.88;6.78;;;;;;;3.34;42.02;99020.66;4502664;31;20119;-81
2022/03/08 04:02:59;;;;;;;17.58;6.97;;;;;;;3.32;42.07;99029.38;4488137;31;20446;-82
2022/03/08 04:05:25;;;;;;;15.18;6.47;;;;;;;2.91;42.94;99025.87;4502552;31;20119;-82
2022/03/08 04:07:50;;;;;;;17.83;6.47;;;;;;;2.93;42.86;99030.16;4488246;31;20147;-82
2022/03/08 04:10:16;;;;;;;14.07;5.87;;;;;;;3.20;42.43;99032.25;4488879;31;20366;-82
2022/03/08 04:12:42;;;;;;;16.15;6.85;;;;;;;3.27;42.17;99032.09;4478009;32;20384;-81
2022/03/08 04:15:09;;;;;;;14.18;6.70;;;;;;;3.25;42.38;99036.47;4486078;32;20119;-81
2022/03/08 04:17:35;;;;;;;14.15;5.78;;;;;;;3.18;42.53;99040.06;4478193;31;20179;-80
2022/03/08 04:20:01;;;;;;;14.77;6.68;;;;;;;3.18;42.51;99042.69;4496973;31;20429;-80
2022/03/08 04:22:27;;;;;;;16.20;7.03;;;;;;;3.12;42.65;99048.87;4472306;32;20153;-80
2022/03/08 04:24:53;;;;;;;16.12;7.22;;;;;;;3.00;42.81;99053.47;4486459;32;20147;-81
2022/03/08 04:27:19;;;;;;;14.70;6.68;;;;;;;2.92;43.15;99049.28;4486643;32;20088;-81
2022/03/08 04:29:44;;;;;;;13.98;6.15;;;;;;;3.06;42.89;99040.34;4487805;32;20379;-81
2022/03/08 04:32:10;;;;;;;17.17;7.25;;;;;;;3.16;42.61;99044.47;4487379;32;20115;-80
2022/03/08 04:34:35;;;;;;;17.70;7.68;;;;;;;3.24;42.61;99039.09;4488042;32;20097;-81
2022/03/08 04:37:00;;;;;;;15.20;6.82;;;;;;;3.21;42.75;99040.03;4473918;32;20498;-81
2022/03/08 04:39:26;;;;;;;14.32;7.10;;;;;;;3.22;42.71;99040.87;4490095;31;20097;-81
2022/03/08 04:41:51;;;;;;;18.25;7.10;;;;;;;3.06;43.01;99041.19;4483112;32;20119;-80
2022/03/08 04:44:17;;;;;;;14.80;6.55;;;;;;;3.10;42.89;99041.97;4488095;32;20496;-81
2022/03/08 04:46:42;;;;;;;14.73;6.80;;;;;;;3.17;42.85;99040.97;4473998;32;20486;-80
2022/03/08 04:49:08;;;;;;;23.65;6.95;;;;;;;2.81;43.51;99027.81;4488261;32;20448;-81
2022/03/08 04:51:33;;;;;;;15.45;6.40;;;;;;;3.03;42.95;99029.97;4488359;32;20126;-81
2022/03/08 04:53:59;;;;;;;18.95;6.55;;;;;;;3.07;42.92;99031.63;4488299;32;20141;-81
2022/03/08 04:56:24;;;;;;;16.95;7.03;;;;;;;3.08;42.91;99029.00;4487933;32;20093;-81
2022/03/08 04:58:50;;;;;;;16.60;6.37;;;;;;;3.17;42.80;99025.34;4488105;32;20140;-82
2022/03/08 05:01:15;;;;;;;16.50;6.68;;;;;;;3.19;42.67;99028.78;4460514;32;20099;-82
2022/03/08 05:03:41;;;;;;;15.45;5.95;;;;;;;3.20;42.59;99033.09;4488094;32;20182;-81
2022/03/08 05:06:07;;;;;;;14.90;6.28;;;;;;;3.26;42.59;99032.97;4488060;32;20123;-80
2022/03/08 05:08:33;;;;;;;15.65;6.70;;;;;;;3.27;42.63;99028.62;4491438;31;20136;-80
2022/03/08 05:10:59;;;;;;;15.63;6.30;;;;;;;3.08;43.35;99033.34;4503605;31;20127;-80
2022/03/08 05:13:25;;;;;;;14.73;6.45;;;;;;;3.25;43.04;99025.19;4503818;31;20183;-81
2022/03/08 05:15:50;;;;;;;15.57;7.00;;;;;;;3.32;42.92;99021.56;4503461;31;20096;-81
2022/03/08 05:18:17;;;;;;;17.05;6.30;;;;;;;3.34;42.70;99022.38;4503725;31;20107;-81
2022/03/08 05:20:43;;;;;;;14.45;6.43;;;;;;;3.23;42.90;99027.84;4503207;31;20489;-81
2022/03/08 05:23:09;;;;;;;15.13;6.72;;;;;;;3.19;42.80;99020.97;4503744;31;20083;-82
2022/03/08 05:25:34;;;;;;;15.75;6.47;;;;;;;3.37;42.42;99018.87;4503724;31;20435;-84
2022/03/08 05:27:59;;;;;;;14.98;6.68;;;;;;;3.35;42.43;99021.50;4503845;31;20463;-85
2022/03/08 05:30:25;;;;;;;16.83;6.82;;;;;;;3.39;42.34;99023.16;4503519;31;20343;-84
2022/03/08 05:32:50;;;;;;;15.85;6.30;;;;;;;3.35;42.42;99018.91;4503127;31;20448;-83
2022/03/08 05:35:17;;;;;;;16.67;6.03;;;;;;;3.33;42.23;99024.13;4488918;31;20099;-84
2022/03/08 05:37:42;;;;;;;16.37;6.22;;;;;;;3.50;41.85;99030.75;4503479;31;20080;-84
2022/03/08 05:40:08;;;;;;;16.33;6.20;;;;;;;3.62;41.67;99024.41;4489052;31;20088;-83
2022/03/08 05:42:34;;;;;;;14.80;6.35;;;;;;;3.54;41.93;99035.00;4487656;31;20447;-84
2022/03/08 05:44:59;;;;;;;15.35;6.07;;;;;;;3.47;42.08;99034.25;4487521;31;20122;-83
2022/03/08 05:47:25;;;;;;;14.18;6.07;;;;;;;3.62;41.96;99037.41;4487702;31;20129;-84
2022/03/08 05:49:50;;;;;;;15.05;6.37;;;;;;;3.46;42.70;99040.34;4487699;31;20106;-85
2022/03/08 05:52:16;;;;;;;14.82;6.37;;;;;;;3.46;42.64;99039.50;4486421;32;20140;-83
2022/03/08 05:54:41;;;;;;;17.15;6.90;;;;;;;3.07;42.48;99037.72;4487472;32;20114;-83
2022/03/08 05:57:07;;;;;;;14.65;5.50;;;;;;;3.53;41.83;99036.75;4485067;31;20096;-83
2022/03/08 05:59:32;;;;;;;15.02;5.70;;;;;;;3.52;41.67;99035.00;4487119;32;20112;-84
2022/03/08 06:01:58;;;;;;;13.75;6.15;;;;;;;3.73;41.33;99031.06;4487601;32;20096;-84
2022/03/08 06:04:23;;;;;;;15.00;6.53;;;;;;;3.70;41.30;99036.34;4487561;32;20096;-84
2022/03/08 06:06:50;;;;;;;15.00;6.20;;;;;;;3.85;41.18;99027.31;4487522;32;20080;-85
2022/03/08 06:09:16;;;;;;;14.57;5.70;;;;;;;3.69;41.32;99033.75;4487614;31;20080;-85
2022/03/08 06:11:42;;;;;;;14.48;6.15;;;;;;;3.93;41.00;99035.81;4487570;31;20101;-81
2022/03/08 06:14:07;;;;;;;15.48;6.37;;;;;;;4.03;40.68;99036.44;4487705;31;20088;-84
2022/03/08 06:16:32;;;;;;;16.40;6.10;;;;;;;4.08;40.65;99034.59;4491136;31;20147;-84
2022/03/08 06:18:58;;;;;;;18.08;7.57;;;;;;;4.19;40.63;99033.47;4488788;31;20092;-84
2022/03/08 06:21:24;;;;;;;16.92;6.37;;;;;;;4.23;40.55;99038.59;4503332;31;20096;-84
2022/03/08 06:23:50;;;;;;;14.38;5.80;;;;;;;4.16;40.70;99044.84;4491018;31;20076;-83
2022/03/08 06:26:15;;;;;;;14.25;6.20;;;;;;;4.34;40.42;99046.97;4487592;31;20143;-84
2022/03/08 06:28:41;;;;;;;15.27;6.35;;;;;;;4.33;40.46;99049.66;4487405;31;20106;-82
2022/03/08 06:31:06;;;;;;;14.50;6.25;;;;;;;4.53;40.54;99049.13;4487388;31;20115;-84
2022/03/08 06:33:31;;;;;;;14.87;6.28;;;;;;;4.31;40.67;99051.44;4487600;31;20080;-84
2022/03/08 06:35:57;;;;;;;14.98;5.70;;;;;;;4.61;39.61;99046.31;4487345;31;20137;-83
2022/03/08 06:38:22;;;;;;;15.25;6.18;;;;;;;4.78;39.11;99046.72;4487647;31;20168;-78
2022/03/08 06:40:48;;;;;;;14.77;5.68;;;;;;;4.85;38.99;99050.88;4488530;31;20124;-82
2022/03/08 06:43:13;;;;;;;16.10;6.65;;;;;;;4.99;38.79;99052.28;4503063;31;20080;-81
2022/03/08 06:45:39;;;;;;;15.88;6.00;;;;;;;5.06;38.56;99054.66;4502934;31;20081;-83
2022/03/08 06:48:04;;;;;;;15.18;6.53;;;;;;;5.33;38.71;99065.22;4503044;31;20092;-81
2022/03/08 06:50:30;;;;;;;16.48;7.10;;;;;;;5.34;38.31;99058.25;4502850;31;20108;-81
2022/03/08 06:52:55;;;;;;;16.15;6.87;;;;;;;5.16;38.10;99065.72;4487659;31;20099;-82
2022/03/08 06:55:21;;;;;;;15.27;6.57;;;;;;;5.37;37.81;99063.37;4486225;31;20371;-82
2022/03/08 06:57:46;;;;;;;17.75;6.95;;;;;;;5.37;37.73;99065.97;4488776;31;20162;-83
2022/03/08 07:00:12;;;;;;;15.57;7.10;;;;;;;5.54;37.57;99066.34;4488957;31;20108;-83
2022/03/08 07:02:38;;;;;;;17.70;6.78;;;;;;;5.60;37.35;99068.81;4475825;31;20483;-83
2022/03/08 07:05:04;;;;;;;20.40;7.28;;;;;;;5.64;37.15;99067.81;4488865;31;20084;-83
2022/03/08 07:07:29;;;;;;;16.42;6.50;;;;;;;5.69;37.12;99067.66;4503297;31;20105;-82
2022/03/08 07:09:55;;;;;;;18.15;7.62;;;;;;;5.74;36.99;99068.38;4489077;31;20100;-83
2022/03/08 07:12:21;;;;;;;18.25;7.15;;;;;;;5.83;36.95;99065.50;4486208;32;20130;-83
2022/03/08 07:14:46;;;;;;;17.67;7.05;;;;;;;5.88;36.82;99075.78;4487463;31;20096;-82
2022/03/08 07:17:11;;;;;;;17.15;7.43;;;;;;;5.83;37.35;99068.09;4487292;31;20114;-83
2022/03/08 07:19:37;;;;;;;16.90;7.10;;;;;;;5.91;37.10;99078.34;4485686;32;20120;-82
2022/03/08 07:22:02;;;;;;;15.82;6.97;;;;;;;6.05;36.73;99075.31;4486193;32;20131;-83
2022/03/08 07:24:28;;;;;;;18.17;7.43;;;;;;;5.93;36.77;99078.25;4486127;32;20096;-83
2022/03/08 07:26:53;;;;;;;18.92;7.95;;;;;;;5.99;36.82;99076.34;4487348;31;20076;-83
2022/03/08 07:29:19;;;;;;;17.83;7.20;;;;;;;6.12;36.47;99073.34;4485818;32;20387;-82
2022/03/08 07:31:44;;;;;;;19.98;7.68;;;;;;;6.12;36.72;99081.19;4487196;31;20138;-83
2022/03/08 07:34:10;;;;;;;20.52;7.60;;;;;;;6.23;36.56;99079.94;4480821;32;168177;-82
2022/03/08 07:36:37;;;;;;;18.40;8.18;;;;;;;6.42;36.71;99082.81;4484354;32;20084;-83
2022/03/08 07:39:03;;;;;;;17.40;7.68;;;;;;;6.63;36.32;99080.41;4488399;31;20579;-82
2022/03/08 07:41:28;;;;;;;20.30;8.68;;;;;;;6.74;35.71;99080.03;4502514;31;20160;-82
2022/03/08 07:43:54;;;;;;;17.67;8.32;;;;;;;6.74;35.82;99080.91;4502697;31;20079;-83
2022/03/08 07:46:19;;;;;;;17.70;8.02;;;;;;;6.87;35.46;99079.53;4502790;31;20076;-82
2022/03/08 07:48:47;;;;;;;21.77;9.73;;;;;;;6.86;35.54;99077.84;4502524;31;20126;-82
2022/03/08 07:51:13;;;;;;;18.52;8.45;;;;;;;6.82;35.69;99081.47;4502778;31;20347;-83
2022/03/08 07:53:38;;;;;;;18.65;8.85;;;;;;;6.97;35.23;99081.84;4502956;31;20136;-83
2022/03/08 07:56:04;;;;;;;17.87;8.48;;;;;;;6.98;35.10;99081.78;4487926;31;20134;-83
2022/03/08 07:58:30;;;;;;;22.70;9.75;;;;;;;7.13;35.12;99084.75;4502873;31;20142;-81
2022/03/08 08:00:56;;;;;;;17.60;8.35;;;;;;;7.15;35.22;99086.44;4502799;31;20092;-82
2022/03/08 08:03:21;;;;;;;19.55;9.00;;;;;;;7.16;34.75;99085.50;4488050;31;20337;-82
2022/03/08 08:05:47;;;;;;;19.45;9.32;;;;;;;7.11;34.81;99078.72;4502519;31;20076;-82
2022/03/08 08:08:13;;;;;;;21.90;9.90;;;;;;;7.12;34.90;99085.69;4486269;31;20400;-82
2022/03/08 08:10:38;;;;;;;21.90;8.73;;;;;;;7.20;34.70;99079.25;4485868;32;20126;-83
2022/03/08 08:13:04;;;;;;;20.30;9.07;;;;;;;7.31;34.46;99080.66;4486790;31;20079;-82
2022/03/08 08:15:29;;;;;;;19.02;9.23;;;;;;;7.21;34.75;99080.13;4485650;32;20080;-82
2022/03/08 08:17:55;;;;;;;18.90;9.25;;;;;;;7.18;35.14;99083.69;4486800;31;20149;-83
2022/03/08 08:20:21;;;;;;;19.92;8.48;;;;;;;7.29;35.14;99085.94;4485509;32;20115;-82
2022/03/08 08:22:47;;;;;;;17.83;8.23;;;;;;;7.29;34.51;99092.03;4486987;31;20075;-82
2022/03/08 08:25:12;;;;;;;18.30;8.50;;;;;;;6.94;35.28;99089.81;4485307;32;20105;-82
2022/03/08 08:27:38;;;;;;;19.80;8.32;;;;;;;7.07;35.19;99091.94;4486481;31;20395;-82
2022/03/08 08:30:06;;;;;;;17.00;8.50;;;;;;;6.89;35.58;99090.84;4486535;31;20085;-82
2022/03/08 08:32:31;;;;;;;18.85;8.52;;;;;;;7.08;35.51;99082.31;4485155;32;20171;-82
2022/03/08 08:34:57;;;;;;;20.12;8.63;;;;;;;7.05;35.30;99083.28;4485043;32;20459;-83
2022/03/08 08:37:22;;;;;;;18.05;7.80;;;;;;;6.74;35.86;99083.50;4485047;32;20375;-82
2022/03/08 08:39:48;;;;;;;15.77;7.22;;;;;;;6.93;35.58;99086.31;4495547;31;20089;-82
2022/03/08 08:42:13;;;;;;;18.25;7.72;;;;;;;6.50;36.04;99087.78;4484897;32;20141;-83
2022/03/08 08:44:38;;;;;;;17.52;7.78;;;;;;;6.91;35.71;99079.44;4486159;31;20088;-83
2022/03/08 08:47:04;;;;;;;17.12;7.82;;;;;;;7.08;35.54;99079.69;4486450;31;20105;-83
2022/03/08 08:49:30;;;;;;;19.75;7.68;;;;;;;7.09;35.49;99074.41;4485321;32;20371;-83
2022/03/08 08:51:56;;;;;;;18.92;7.25;;;;;;;6.84;35.69;99082.28;4485195;32;20161;-82
2022/03/08 08:54:22;;;;;;;15.52;7.15;;;;;;;6.63;35.54;99083.88;4486323;31;20130;-82
2022/03/08 08:56:48;;;;;;;19.35;8.50;;;;;;;6.62;35.58;99081.28;4485193;32;20112;-82
2022/03/08 08:59:13;;;;;;;18.27;8.57;;;;;;;6.77;35.76;99083.38;4486333;31;20396;-83
2022/03/08 09:01:39;;;;;;;18.27;8.18;;;;;;;7.01;35.82;99078.19;4485021;32;20114;-83
2022/03/08 09:04:04;;;;;;;18.55;7.45;;;;;;;7.02;35.66;99066.81;4484900;32;20398;-83
2022/03/08 09:06:29;;;;;;;18.35;7.60;;;;;;;7.23;35.61;99070.44;4484909;32;20131;-82
2022/03/08 09:08:58;;;;;;;18.67;8.25;;;;;;;7.26;35.21;99068.56;4486133;31;20100;-82
2022/03/08 09:11:25;;;;;;;18.25;7.62;;;;;;;7.24;35.09;99075.62;4499811;31;20092;-82
2022/03/08 09:13:50;;;;;;;17.75;7.80;;;;;;;7.30;34.71;99071.91;4501837;31;20121;-82
2022/03/08 09:16:16;;;;;;;20.45;7.80;;;;;;;7.44;34.50;99072.28;4503825;31;20498;-83
2022/03/08 09:18:43;;;;;;;18.67;8.20;;;;;;;7.57;34.27;99064.81;4503725;31;20153;-82
2022/03/08 09:21:10;;;;;;;15.83;7.27;;;;;;;7.65;33.60;99068.00;4489749;31;20156;-83
2022/03/08 09:23:36;;;;;;;17.10;6.90;;;;;;;7.68;33.90;99061.75;4504007;31;20555;-84
2022/03/08 09:26:01;;;;;;;14.43;6.65;;;;;;;7.67;32.62;99065.31;4489615;31;20215;-83
2022/03/08 09:28:27;;;;;;;15.73;6.18;;;;;;;7.71;32.40;99063.41;4503723;31;20092;-82
2022/03/08 09:30:52;;;;;;;14.82;6.62;;;;;;;7.85;32.07;99061.97;4489458;31;20091;-82
2022/03/08 09:33:18;;;;;;;17.20;7.20;;;;;;;7.37;33.02;99072.56;4489194;31;20080;-82
2022/03/08 09:35:43;;;;;;;14.52;5.82;;;;;;;7.38;33.61;99071.63;4489216;31;20108;-82
2022/03/08 09:38:11;;;;;;;16.00;6.35;;;;;;;7.54;32.48;99077.19;4503730;31;20114;-83
2022/03/08 09:40:37;;;;;;;13.55;5.62;;;;;;;7.43;32.80;99067.06;4480090;32;20092;-81
2022/03/08 09:43:03;;;;;;;16.08;6.00;;;;;;;7.47;32.51;99072.16;4487790;32;20092;-82
2022/03/08 09:45:28;;;;;;;14.85;6.37;;;;;;;7.28;33.09;99069.38;4487614;32;20092;-82
2022/03/08 09:47:54;;;;;;;14.98;5.53;;;;;;;7.65;33.09;99060.12;4487833;32;20104;-82
2022/03/08 09:50:19;;;;;;;18.35;7.60;;;;;;;7.86;32.76;99061.06;4473389;32;20124;-83
2022/03/08 09:52:45;;;;;;;17.35;6.93;;;;;;;7.84;33.03;99062.91;4487633;32;20104;-83
2022/03/08 09:55:14;;;;;;;14.02;6.25;;;;;;;7.98;33.16;99054.47;4487669;32;20089;-83
2022/03/08 09:57:40;;;;;;;17.27;7.22;;;;;;;8.00;33.28;99059.66;4473609;32;20084;-83
2022/03/08 10:00:06;;;;;;;13.25;5.10;;;;;;;8.03;33.23;99064.78;4473484;32;20088;-83
2022/03/08 10:02:50;;;;;;;15.07;6.22;;;;;;;8.06;31.90;99070.75;4487659;32;20072;-83
2022/03/08 10:05:17;;;;;;;17.45;7.10;;;;;;;8.12;32.07;99064.41;4488089;31;20144;-83
2022/03/08 10:08:14;;;;;;;18.87;7.27;;;;;;;8.20;32.37;99064.94;4486426;32;20122;-83
2022/03/08 10:10:49;;;;;;;14.65;6.15;;;;;;;8.34;32.29;99067.00;4487653;31;20080;-82
2022/03/08 10:13:15;;;;;;;15.18;5.93;;;;;;;8.39;31.40;99064.22;4486375;32;20110;-83
2022/03/08 10:15:43;;;;;;;16.62;7.18;;;;;;;8.37;31.17;99064.28;4488186;31;20108;-82
2022/03/08 10:18:09;;;;;;;16.60;6.35;;;;;;;8.39;31.41;99072.94;4503350;31;20096;-83
2022/03/08 10:20:34;;;;;;;14.85;6.30;;;;;;;8.27;31.06;99074.28;4503350;31;20110;-83
2022/03/08 10:23:02;;;;;;;16.50;6.78;;;;;;;8.12;31.58;99079.31;4488870;31;20112;-83
2022/03/08 10:25:29;;;;;;;;;;;;;;;8.29;31.13;99069.00;4487356;32;20092;-83
2022/03/08 10:27:54;;;;;;;16.33;6.87;;;;;;;8.15;30.61;99071.31;4472811;32;20006;-83
2022/03/08 10:30:40;;;;;;;17.42;6.30;;;;;;;8.36;30.88;99067.81;4487473;32;20088;-83
2022/03/08 10:33:06;;;;;;;14.38;6.07;;;;;;;8.49;30.89;99070.81;4487091;32;20068;-83
2022/03/08 10:35:37;;;;;;;15.32;6.40;;;;;;;8.52;29.81;99072.44;4481381;31;20397;-83
2022/03/08 10:38:08;;;;;;;14.15;5.93;;;;;;;8.50;30.07;99059.41;4501736;31;20087;-82
2022/03/08 10:40:34;;;;;;;17.90;7.37;;;;;;;8.62;29.94;99056.25;4503329;31;20088;-83
2022/03/08 10:43:04;;;;;;;14.32;6.25;;;;;;;8.68;29.86;99054.31;4503291;31;20112;-83
2022/03/08 10:45:31;;;;;;;17.70;6.72;;;;;;;8.50;29.80;99059.41;4483735;31;20122;-82
2022/03/08 10:47:56;;;;;;;15.25;6.62;;;;;;;8.36;30.11;99061.69;4469684;31;20126;-81
2022/03/08 10:50:31;;;;;;;14.30;5.22;;;;;;;8.60;30.22;99058.09;4486753;31;20081;-79
2022/03/08 10:52:58;;;;;;;14.45;5.22;;;;;;;8.55;29.42;99059.22;4477506;32;20084;-82
2022/03/08 10:55:26;;;;;;;14.20;6.00;;;;;;;8.72;29.23;99055.87;4488164;31;20458;-81
2022/03/08 10:57:54;;;;;;;15.13;6.40;;;;;;;8.83;28.91;99046.59;4497798;31;20171;-81
2022/03/08 11:00:25;;;;;;;16.65;6.45;;;;;;;8.81;29.14;99058.97;4482003;31;20163;-83
2022/03/08 11:02:50;;;;;;;15.98;6.22;;;;;;;8.88;29.45;99053.44;4493504;31;20092;-83
2022/03/08 11:05:17;;;;;;;13.13;6.03;;;;;;;8.92;29.31;99049.75;4495402;31;20458;-81
2022/03/08 11:07:42;;;;;;;14.90;6.20;;;;;;;9.03;28.49;99045.72;4500155;31;20137;-83
2022/03/08 11:10:10;;;;;;;13.43;5.12;;;;;;;9.16;28.46;99046.06;4488764;31;20079;-81
2022/03/08 11:12:37;;;;;;;13.13;5.07;;;;;;;8.72;26.51;99050.63;4501178;31;20123;-83
2022/03/08 11:15:06;;;;;;;13.15;5.37;;;;;;;8.86;26.37;99040.34;4488099;31;20115;-83
2022/03/08 11:17:37;;;;;;;12.15;4.75;;;;;;;8.89;26.68;99042.88;4488685;31;20147;-82
2022/03/08 11:20:05;;;;;;;12.80;5.10;;;;;;;9.22;26.69;99045.78;4482016;31;20504;-81
2022/03/08 11:22:31;;;;;;;14.07;5.78;;;;;;;9.43;26.82;99038.69;4487044;32;20098;-83
2022/03/08 11:24:57;;;;;;;16.83;6.30;;;;;;;9.72;26.55;99027.75;4472801;31;20100;-83
2022/03/08 11:27:23;;;;;;;14.85;6.05;;;;;;;9.80;26.66;99023.81;4482159;31;20101;-86
2022/03/08 11:29:52;;;;;;;14.55;5.78;;;;;;;9.95;26.46;99029.28;4485957;31;20092;-83